Terminal Aerodrome Forecast
Issued by NWS Jacksonville, FL

Home | Current Version | Previous Version | Text Only | Print | Product List | Glossary On
Versions: 1 2 3 4 5 6 7 8 9 10 11 12 13 14 15 16 17 18 19 20 21 22 23 24 25 26
828
FTUS42 KJAX 211859 AAA
TAFJAX
TAF AMD
KJAX 211859Z 2119/2218 21015G25KT P6SM SCT050 BKN200
     FM212300 21010KT P6SM VCTS SCT040CB BKN100
     FM220600 21010KT P6SM BKN025
     FM221000 19013KT P6SM BKN015
     FM221500 22018G28KT P6SM VCTS BKN025CB=

USA.gov is the U.S. government's official web portal to all federal, state and local government web resources and services.